Time,TemperatureF,DewpointF,PressureIn,WindDirection,WindDirectionDegrees,WindSpeedMPH,WindSpeedGustMPH,Humidity,HourlyPrecipIn,Conditions,Clouds,dailyrainin,SoftwareType,DateUTC
2013-01-21 00:00:00,28.8,12.0,30.19,NW,313,3.0,5.0,49,0.00,,,0.00,weatherlink.com 1.10,2013-01-21 05:00:00,
2013-01-21 00:15:00,28.6,12.0,30.18,NW,305,3.0,6.0,50,0.00,,,0.00,weatherlink.com 1.10,2013-01-21 05:15:00,
2013-01-21 00:30:00,28.6,12.0,30.18,WSW,252,5.0,5.0,50,0.00,,,0.00,weatherlink.com 1.10,2013-01-21 05:30:00,
2013-01-21 00:45:00,28.4,12.0,30.17,SW,219,2.0,5.0,51,0.00,,,0.00,weatherlink.com 1.10,2013-01-21 05:45:00,
2013-01-21 01:00:00,28.3,12.0,30.16,SW,231,2.0,6.0,50,0.00,,,0.00,weatherlink.com 1.10,2013-01-21 06:00:00,
2013-01-21 01:15:00,28.1,12.0,30.15,NNW,331,2.0,5.0,51,0.00,,,0.00,weatherlink.com 1.10,2013-01-21 06:15:00,
2013-01-21 01:30:00,27.9,12.0,30.15,West,280,1.0,6.0,52,0.00,,,0.00,weatherlink.com 1.10,2013-01-21 06:30:00,
2013-01-21 01:45:00,27.8,13.0,30.15,NW,323,1.0,6.0,53,0.00,,,0.00,weatherlink.com 1.10,2013-01-21 06:45:00,
2013-01-21 02:00:00,27.6,13.0,30.15,WNW,296,0.0,4.0,54,0.00,,,0.00,weatherlink.com 1.10,2013-01-21 07:00:00,
2013-01-21 02:15:00,27.5,13.0,30.15,WNW,290,3.0,7.0,55,0.00,,,0.00,weatherlink.com 1.10,2013-01-21 07:15:00,
2013-01-21 02:30:00,27.5,13.0,30.15,WNW,282,0.0,7.0,55,0.00,,,0.00,weatherlink.com 1.10,2013-01-21 07:30:00,
2013-01-21 02:45:00,27.5,13.0,30.14,NNW,341,0.0,5.0,55,0.00,,,0.00,weatherlink.com 1.10,2013-01-21 07:45:00,
2013-01-21 03:00:00,27.3,13.0,30.15,West,272,1.0,6.0,54,0.00,,,0.00,weatherlink.com 1.10,2013-01-21 08:00:00,
2013-01-21 03:15:00,27.3,13.0,30.15,WSW,255,1.0,7.0,54,0.00,,,0.00,weatherlink.com 1.10,2013-01-21 08:15:00,
2013-01-21 03:30:00,27.1,12.0,30.15,SW,219,4.0,8.0,54,0.00,,,0.00,weatherlink.com 1.10,2013-01-21 08:30:00,
2013-01-21 03:45:00,27.1,13.0,30.14,WNW,300,1.0,6.0,55,0.00,,,0.00,weatherlink.com 1.10,2013-01-21 08:45:00,
2013-01-21 04:00:00,27.2,13.0,30.14,WSW,250,0.0,3.0,55,0.00,,,0.00,weatherlink.com 1.10,2013-01-21 09:00:00,
2013-01-21 04:15:00,27.1,13.0,30.14,SW,236,0.0,4.0,56,0.00,,,0.00,weatherlink.com 1.10,2013-01-21 09:15:00,
2013-01-21 04:30:00,27.1,14.0,30.14,SW,231,0.0,4.0,57,0.00,,,0.00,weatherlink.com 1.10,2013-01-21 09:30:00,
2013-01-21 04:45:00,27.0,14.0,30.13,SW,216,3.0,4.0,58,0.00,,,0.00,weatherlink.com 1.10,2013-01-21 09:45:00,
2013-01-21 05:00:00,26.6,13.0,30.13,SW,217,3.0,4.0,58,0.00,,,0.00,weatherlink.com 1.10,2013-01-21 10:00:00,
2013-01-21 05:16:00,26.6,14.0,30.13,WSW,242,1.0,5.0,60,0.00,,,0.00,weatherlink.com 1.10,2013-01-21 10:16:00,
2013-01-21 05:31:00,26.7,14.0,30.13,SW,215,1.0,7.0,60,0.00,,,0.00,weatherlink.com 1.10,2013-01-21 10:31:00,
2013-01-21 05:46:00,26.5,14.0,30.14,SW,217,0.0,6.0,60,0.00,,,0.00,weatherlink.com 1.10,2013-01-21 10:46:00,
2013-01-21 06:01:00,26.5,15.0,30.14,SSW,202,2.0,5.0,62,0.00,,,0.00,weatherlink.com 1.10,2013-01-21 11:01:00,
2013-01-21 06:16:00,26.5,15.0,30.13,SSW,213,1.0,4.0,63,0.00,,,0.00,weatherlink.com 1.10,2013-01-21 11:16:00,
2013-01-21 06:31:00,26.2,15.0,30.13,SW,221,2.0,6.0,63,0.00,,,0.00,weatherlink.com 1.10,2013-01-21 11:31:00,
2013-01-21 06:46:00,25.9,15.0,30.12,SW,231,3.0,10.0,64,0.00,,,0.00,weatherlink.com 1.10,2013-01-21 11:46:00,
2013-01-21 07:01:00,25.9,16.0,30.13,WSW,246,8.0,10.0,65,0.00,,,0.00,weatherlink.com 1.10,2013-01-21 12:01:00,
2013-01-21 07:16:00,25.6,16.0,30.13,SSW,207,3.0,9.0,66,0.00,,,0.00,weatherlink.com 1.10,2013-01-21 12:16:00,
2013-01-21 07:31:00,25.5,16.0,30.13,South,169,2.0,9.0,66,0.00,,,0.00,weatherlink.com 1.10,2013-01-21 12:31:00,
2013-01-21 07:46:00,25.3,16.0,30.13,WSW,246,4.0,11.0,67,0.00,,,0.00,weatherlink.com 1.10,2013-01-21 12:46:00,
2013-01-21 08:01:00,25.3,16.0,30.14,West,275,4.0,8.0,67,0.00,,,0.00,weatherlink.com 1.10,2013-01-21 13:01:00,
2013-01-21 08:16:00,25.3,16.0,30.13,SSW,210,3.0,12.0,68,0.00,,,0.00,weatherlink.com 1.10,2013-01-21 13:16:00,
2013-01-21 08:31:00,25.6,16.0,30.13,SSW,213,5.0,7.0,67,0.00,,,0.00,weatherlink.com 1.10,2013-01-21 13:31:00,
2013-01-21 08:46:00,25.6,16.0,30.14,SW,219,4.0,14.0,66,0.00,,,0.00,weatherlink.com 1.10,2013-01-21 13:46:00,
2013-01-21 09:01:00,25.5,16.0,30.14,SSW,193,5.0,14.0,66,0.00,,,0.00,weatherlink.com 1.10,2013-01-21 14:01:00,
2013-01-21 09:16:00,25.3,16.0,30.14,SW,221,2.0,14.0,67,0.00,,,0.00,weatherlink.com 1.10,2013-01-21 14:16:00,
2013-01-21 09:31:00,25.5,16.0,30.14,SW,236,4.0,9.0,67,0.00,,,0.00,weatherlink.com 1.10,2013-01-21 14:31:00,
2013-01-21 09:46:00,25.4,16.0,30.14,SW,236,3.0,10.0,68,0.00,,,0.00,weatherlink.com 1.10,2013-01-21 14:46:00,
2013-01-21 10:01:00,25.6,16.0,30.13,SSW,192,4.0,13.0,66,0.00,,,0.00,weatherlink.com 1.10,2013-01-21 15:01:00,
2013-01-21 10:16:00,25.6,14.0,30.13,South,185,7.0,13.0,62,0.00,,,0.00,weatherlink.com 1.10,2013-01-21 15:16:00,
2013-01-21 10:31:00,25.8,12.0,30.13,SSW,196,5.0,13.0,57,0.00,,,0.00,weatherlink.com 1.10,2013-01-21 15:31:00,
2013-01-21 10:46:00,25.7,12.0,30.13,West,279,2.0,14.0,57,0.00,,,0.00,weatherlink.com 1.10,2013-01-21 15:46:00,
2013-01-21 11:01:00,25.8,15.0,30.13,South,178,8.0,13.0,63,0.00,,,0.00,weatherlink.com 1.10,2013-01-21 16:01:00,
2013-01-21 11:16:00,25.9,14.0,30.13,SSW,211,10.0,13.0,60,0.00,,,0.00,weatherlink.com 1.10,2013-01-21 16:16:00,
2013-01-21 11:31:00,25.9,12.0,30.14,SW,222,4.0,18.0,55,0.00,,,0.00,weatherlink.com 1.10,2013-01-21 16:31:00,
2013-01-21 11:46:00,26.1,11.0,30.13,SSW,205,7.0,21.0,54,0.00,,,0.00,weatherlink.com 1.10,2013-01-21 16:46:00,
2013-01-21 12:01:00,24.9,13.0,30.13,West,273,6.0,15.0,62,0.00,,,0.00,weatherlink.com 1.10,2013-01-21 17:01:00,
2013-01-21 12:16:00,23.9,16.0,30.14,SW,230,11.0,18.0,71,0.00,,,0.00,weatherlink.com 1.10,2013-01-21 17:16:00,
2013-01-21 12:31:00,23.4,18.0,30.13,WSW,240,9.0,15.0,78,0.00,,,0.00,weatherlink.com 1.10,2013-01-21 17:31:00,
2013-01-21 12:46:00,24.6,12.0,30.13,South,190,9.0,21.0,60,0.00,,,0.00,weatherlink.com 1.10,2013-01-21 17:46:00,
2013-01-21 13:01:00,23.9,13.0,30.13,WSW,242,7.0,19.0,64,0.00,,,0.00,weatherlink.com 1.10,2013-01-21 18:01:00,
2013-01-21 13:16:00,23.9,12.0,30.13,WSW,240,3.0,16.0,60,0.00,,,0.00,weatherlink.com 1.10,2013-01-21 18:16:00,
2013-01-21 13:31:00,22.8,11.0,30.13,SSW,198,5.0,15.0,60,0.00,,,0.00,weatherlink.com 1.10,2013-01-21 18:31:00,
2013-01-21 13:47:00,23.9,10.0,30.07,SSW,203,4.0,15.0,55,0.00,,,0.00,weatherlink.com 1.10,2013-01-21 18:47:00,
2013-01-21 14:02:00,23.7,8.0,30.13,South,180,4.0,20.0,52,0.00,,,0.00,weatherlink.com 1.10,2013-01-21 19:02:00,
2013-01-21 14:17:00,23.1,7.0,30.11,WSW,248,4.0,17.0,51,0.00,,,0.00,weatherlink.com 1.10,2013-01-21 19:17:00,
2013-01-21 14:32:00,22.7,6.0,30.14,WSW,246,7.0,14.0,49,0.00,,,0.00,weatherlink.com 1.10,2013-01-21 19:32:00,
2013-01-21 14:47:00,23.6,6.0,30.13,SW,232,8.0,18.0,48,0.00,,,0.00,weatherlink.com 1.10,2013-01-21 19:47:00,
2013-01-21 15:02:00,24.0,6.0,30.13,NW,307,5.0,15.0,46,0.00,,,0.00,weatherlink.com 1.10,2013-01-21 20:02:00,
2013-01-21 15:17:00,24.4,5.0,30.14,WSW,254,6.0,15.0,44,0.00,,,0.00,weatherlink.com 1.10,2013-01-21 20:17:00,
2013-01-21 15:32:00,24.5,4.0,30.11,West,263,14.0,18.0,42,0.00,,,0.00,weatherlink.com 1.10,2013-01-21 20:32:00,
2013-01-21 15:47:00,24.0,4.0,30.15,WSW,257,7.0,14.0,43,0.00,,,0.00,weatherlink.com 1.10,2013-01-21 20:47:00,
2013-01-21 16:02:00,24.0,5.0,30.16,SE,138,1.0,14.0,45,0.00,,,0.00,weatherlink.com 1.10,2013-01-21 21:02:00,
2013-01-21 16:17:00,23.8,4.0,30.16,South,190,5.0,16.0,43,0.00,,,0.00,weatherlink.com 1.10,2013-01-21 21:17:00,
2013-01-21 16:32:00,23.4,2.0,30.17,West,275,11.0,17.0,40,0.00,,,0.00,weatherlink.com 1.10,2013-01-21 21:32:00,
2013-01-21 16:47:00,23.2,3.0,30.17,SW,234,7.0,15.0,42,0.00,,,0.00,weatherlink.com 1.10,2013-01-21 21:47:00,
2013-01-21 17:02:00,22.4,2.0,30.17,WSW,241,5.0,15.0,42,0.00,,,0.00,weatherlink.com 1.10,2013-01-21 22:02:00,
2013-01-21 17:17:00,22.6,3.0,30.18,NW,304,5.0,9.0,43,0.00,,,0.00,weatherlink.com 1.10,2013-01-21 22:17:00,
2013-01-21 17:32:00,21.8,2.0,30.18,South,190,4.0,17.0,42,0.00,,,0.00,weatherlink.com 1.10,2013-01-21 22:32:00,
2013-01-21 17:47:00,21.2,2.0,30.19,West,273,6.0,11.0,44,0.00,,,0.00,weatherlink.com 1.10,2013-01-21 22:47:00,
2013-01-21 18:02:00,20.8,2.0,30.20,WSW,248,2.0,12.0,44,0.00,,,0.00,weatherlink.com 1.10,2013-01-21 23:02:00,
2013-01-21 18:17:00,20.4,2.0,30.20,WSW,250,1.0,13.0,44,0.00,,,0.00,weatherlink.com 1.10,2013-01-21 23:17:00,
2013-01-21 18:32:00,20.1,1.0,30.21,West,274,4.0,11.0,44,0.00,,,0.00,weatherlink.com 1.10,2013-01-21 23:32:00,
2013-01-21 18:47:00,19.8,1.0,30.20,NW,325,1.0,9.0,44,0.00,,,0.00,weatherlink.com 1.10,2013-01-21 23:47:00,
2013-01-21 19:02:00,19.3,1.0,30.21,West,281,4.0,9.0,45,0.00,,,0.00,weatherlink.com 1.10,2013-01-22 00:02:00,
2013-01-21 19:17:00,18.8,1.0,30.22,West,271,6.0,12.0,46,0.00,,,0.00,weatherlink.com 1.10,2013-01-22 00:17:00,
2013-01-21 19:32:00,18.2,1.0,30.23,WNW,285,9.0,13.0,48,0.00,,,0.00,weatherlink.com 1.10,2013-01-22 00:32:00,
2013-01-21 19:47:00,17.8,1.0,30.23,South,170,4.0,13.0,47,0.00,,,0.00,weatherlink.com 1.10,2013-01-22 00:47:00,
2013-01-21 20:02:00,17.4,1.0,30.23,SSW,194,7.0,12.0,49,0.00,,,0.00,weatherlink.com 1.10,2013-01-22 01:02:00,
2013-01-21 20:18:00,17.0,1.0,30.24,WSW,249,7.0,10.0,50,0.00,,,0.00,weatherlink.com 1.10,2013-01-22 01:18:00,
2013-01-21 20:33:00,16.7,1.0,30.25,West,271,3.0,11.0,51,0.00,,,0.00,weatherlink.com 1.10,2013-01-22 01:33:00,
2013-01-21 20:48:00,16.6,2.0,30.25,WSW,252,5.0,10.0,53,0.00,,,0.00,weatherlink.com 1.10,2013-01-22 01:48:00,
2013-01-21 21:03:00,16.1,2.0,30.26,WSW,246,2.0,18.0,53,0.00,,,0.00,weatherlink.com 1.10,2013-01-22 02:03:00,
2013-01-21 21:18:00,15.9,1.0,30.27,SW,219,5.0,10.0,53,0.00,,,0.00,weatherlink.com 1.10,2013-01-22 02:18:00,
2013-01-21 21:33:00,15.7,1.0,30.27,West,274,2.0,15.0,53,0.00,,,0.00,weatherlink.com 1.10,2013-01-22 02:33:00,
2013-01-21 21:48:00,15.5,1.0,30.27,SW,223,3.0,13.0,52,0.00,,,0.00,weatherlink.com 1.10,2013-01-22 02:48:00,
2013-01-21 22:03:00,15.3,0.0,30.27,WSW,257,8.0,12.0,52,0.00,,,0.00,weatherlink.com 1.10,2013-01-22 03:03:00,
2013-01-21 22:18:00,15.3,0.0,30.27,South,179,5.0,12.0,52,0.00,,,0.00,weatherlink.com 1.10,2013-01-22 03:18:00,
2013-01-21 22:33:00,15.4,1.0,30.28,WSW,245,3.0,10.0,52,0.00,,,0.00,weatherlink.com 1.10,2013-01-22 03:33:00,
2013-01-21 22:48:00,15.3,0.0,30.28,SSW,213,5.0,14.0,52,0.00,,,0.00,weatherlink.com 1.10,2013-01-22 03:48:00,
2013-01-21 23:03:00,15.4,1.0,30.29,SSW,212,2.0,14.0,52,0.00,,,0.00,weatherlink.com 1.10,2013-01-22 04:03:00,
2013-01-21 23:18:00,15.1,0.0,30.29,WSW,252,5.0,13.0,52,0.00,,,0.00,weatherlink.com 1.10,2013-01-22 04:18:00,
2013-01-21 23:33:00,15.0,1.0,30.29,WNW,282,5.0,11.0,54,0.00,,,0.00,weatherlink.com 1.10,2013-01-22 04:33:00,
2013-01-21 23:48:00,14.4,0.0,30.29,South,191,3.0,12.0,52,0.00,,,0.00,weatherlink.com 1.10,2013-01-22 04:48:00,